Time;durP1;ratioP1;P1;durP2;ratioP2;P2;SDS_P1;SDS_P2;PMS_P1;PMS_P2;Temp;Humidity;BMP_temperature;BMP_pressure;BME280_temperature;BME280_humidity;BME280_pressure;Samples;Min_cycle;Max_cycle;Signal;HPM_P1;HPM_P2
2023/05/14 00:00:30;;;;;;;16.02;9.27;;;;;;;9.42;100.00;95829.53;1025979;28;20123;-72
2023/05/14 00:01:00;;;;;;;14.05;9.45;;;;;;;9.47;100.00;95827.97;1018128;29;20035;-71
2023/05/14 00:01:31;;;;;;;15.25;8.65;;;;;;;9.47;100.00;95833.22;1018094;29;20036;-73
2023/05/14 00:02:02;;;;;;;14.82;9.55;;;;;;;9.41;100.00;95827.16;1018159;29;20023;-72
2023/05/14 00:02:32;;;;;;;16.25;8.68;;;;;;;9.31;100.00;95808.75;1018041;29;20028;-71
2023/05/14 00:03:03;;;;;;;12.25;9.02;;;;;;;9.43;100.00;95823.25;1022045;29;20031;-72
2023/05/14 00:03:33;;;;;;;12.35;9.10;;;;;;;9.34;100.00;95811.66;1022015;29;20027;-72
2023/05/14 00:04:04;;;;;;;14.05;9.60;;;;;;;9.50;100.00;95830.88;1018170;29;20031;-72
2023/05/14 00:04:35;;;;;;;12.95;8.95;;;;;;;9.44;100.00;95821.41;1017914;29;20675;-72
2023/05/14 00:05:06;;;;;;;14.65;9.30;;;;;;;9.51;100.00;95829.81;1022081;29;20023;-73
2023/05/14 00:05:36;;;;;;;13.10;8.68;;;;;;;9.51;100.00;95829.03;1021972;29;20861;-72
2023/05/14 00:06:08;;;;;;;16.27;9.02;;;;;;;9.52;100.00;95826.16;1019578;29;20270;-72
2023/05/14 00:06:38;;;;;;;13.77;8.70;;;;;;;9.53;100.00;95826.97;1026261;28;20031;-71
2023/05/14 00:07:09;;;;;;;12.38;8.93;;;;;;;9.54;100.00;95825.91;1026112;28;20655;-72
2023/05/14 00:07:40;;;;;;;13.23;8.90;;;;;;;9.52;100.00;95826.16;1030033;28;20129;-74
2023/05/14 00:08:10;;;;;;;13.88;8.70;;;;;;;9.51;100.00;95827.22;1033929;28;20917;-71
2023/05/14 00:08:40;;;;;;;12.27;8.80;;;;;;;9.55;100.00;95830.91;1025364;28;20022;-72
2023/05/14 00:09:11;;;;;;;11.43;8.88;;;;;;;9.54;100.00;95820.69;1025812;28;20031;-71
2023/05/14 00:09:42;;;;;;;13.77;9.00;;;;;;;9.57;100.00;95828.03;1025039;28;20531;-72
2023/05/14 00:10:12;;;;;;;13.40;9.20;;;;;;;9.55;100.00;95835.34;1026122;28;20277;-72
2023/05/14 00:10:43;;;;;;;13.02;9.45;;;;;;;9.52;100.00;95823.53;1026001;28;20030;-72
2023/05/14 00:11:14;;;;;;;11.38;8.63;;;;;;;9.53;100.00;95824.34;1023888;28;20027;-72
2023/05/14 00:11:44;;;;;;;12.00;8.63;;;;;;;9.49;100.00;95818.84;1030238;28;20023;-73
2023/05/14 00:12:15;;;;;;;11.55;8.43;;;;;;;9.52;100.00;95826.16;1026011;28;20572;-72
2023/05/14 00:12:45;;;;;;;15.88;8.98;;;;;;;9.50;100.00;95820.41;1026280;28;20027;-72
2023/05/14 00:13:16;;;;;;;12.60;8.95;;;;;;;9.35;100.00;95801.97;1026526;28;20105;-71
2023/05/14 00:13:46;;;;;;;15.48;9.65;;;;;;;9.49;100.00;95825.88;1030280;28;20026;-71
2023/05/14 00:14:17;;;;;;;11.73;9.15;;;;;;;9.42;100.00;95818.25;1034070;28;20848;-72
2023/05/14 00:14:47;;;;;;;11.93;8.50;;;;;;;9.49;100.00;95824.06;1034086;28;20663;-72
2023/05/14 00:15:18;;;;;;;12.43;8.88;;;;;;;9.48;100.00;95827.72;1034122;28;20034;-71
2023/05/14 00:15:48;;;;;;;12.70;8.85;;;;;;;9.51;100.00;95824.59;1034207;28;20080;-72
2023/05/14 00:16:19;;;;;;;11.68;8.65;;;;;;;9.53;100.00;95819.91;1030210;28;20018;-72
2023/05/14 00:16:49;;;;;;;10.85;7.93;;;;;;;9.51;100.00;95826.44;1033964;28;20034;-72
2023/05/14 00:17:20;;;;;;;11.90;8.30;;;;;;;9.52;100.00;95828.00;1034305;28;20388;-74
2023/05/14 00:17:50;;;;;;;12.95;8.95;;;;;;;9.50;100.00;95817.78;1034128;28;20029;-72
2023/05/14 00:18:20;;;;;;;12.57;8.32;;;;;;;9.49;100.00;95816.22;1038096;28;20030;-73
2023/05/14 00:18:51;;;;;;;11.35;8.27;;;;;;;9.52;100.00;95823.53;1028672;28;20077;-72
2023/05/14 00:19:21;;;;;;;11.82;8.73;;;;;;;9.47;100.00;95820.91;1029868;28;20560;-72
2023/05/14 00:19:52;;;;;;;12.52;9.40;;;;;;;9.41;100.00;95811.44;1030915;28;20607;-72
2023/05/14 00:20:22;;;;;;;12.02;8.32;;;;;;;9.41;100.00;95811.44;1029930;28;20425;-71
2023/05/14 00:20:53;;;;;;;14.80;8.82;;;;;;;9.40;100.00;95817.72;1025936;28;20026;-71
2023/05/14 00:21:24;;;;;;;14.40;8.93;;;;;;;9.41;100.00;95811.44;1019652;28;20031;-73
2023/05/14 00:21:54;;;;;;;14.20;9.55;;;;;;;9.38;100.00;95806.69;1026003;28;20736;-71
2023/05/14 00:22:25;;;;;;;17.45;9.40;;;;;;;9.42;100.00;95818.25;1025690;28;20707;-72
2023/05/14 00:22:55;;;;;;;11.70;8.43;;;;;;;9.42;100.00;95813.81;1022205;28;20160;-70
2023/05/14 00:23:26;;;;;;;12.05;8.55;;;;;;;9.42;100.00;95818.25;1029840;28;20052;-72
2023/05/14 00:23:56;;;;;;;12.05;8.85;;;;;;;9.37;100.00;95813.00;1026033;28;20026;-71
2023/05/14 00:24:27;;;;;;;14.13;8.60;;;;;;;9.39;100.00;95803.84;1021813;29;20027;-71
2023/05/14 00:24:57;;;;;;;12.32;8.32;;;;;;;9.43;100.00;95814.59;1020586;29;20423;-71
2023/05/14 00:25:28;;;;;;;14.75;9.05;;;;;;;9.42;100.00;95813.81;1018189;29;20139;-72
2023/05/14 00:25:58;;;;;;;14.00;9.07;;;;;;;9.39;100.00;95803.84;1018083;29;20031;-71
2023/05/14 00:26:29;;;;;;;11.57;8.10;;;;;;;9.44;100.00;95816.16;1021662;29;20035;-72
2023/05/14 00:26:59;;;;;;;13.73;8.88;;;;;;;9.42;100.00;95807.75;1021992;29;20073;-72
2023/05/14 00:27:30;;;;;;;11.93;8.85;;;;;;;9.37;100.00;95807.75;1021900;28;20035;-71
2023/05/14 00:28:00;;;;;;;12.20;8.18;;;;;;;9.40;100.00;95815.09;1021936;29;20039;-72
2023/05/14 00:28:30;;;;;;;14.63;9.05;;;;;;;9.36;100.00;95809.59;1018139;29;20097;-73
2023/05/14 00:29:01;;;;;;;12.48;8.52;;;;;;;9.36;100.00;95811.41;1017494;29;20032;-71
2023/05/14 00:29:31;;;;;;;15.10;8.60;;;;;;;9.32;100.00;95812.94;1014270;29;20040;-71
2023/05/14 00:30:03;;;;;;;17.95;8.77;;;;;;;9.23;100.00;95804.00;1016572;29;20044;-73
2023/05/14 00:30:34;;;;;;;14.90;9.10;;;;;;;9.30;100.00;95815.03;1022089;29;20034;-71
2023/05/14 00:31:04;;;;;;;13.23;8.70;;;;;;;9.30;100.00;95804.56;1017980;29;20283;-72
2023/05/14 00:31:35;;;;;;;12.75;8.68;;;;;;;9.28;100.00;95812.66;1019256;28;20050;-70
2023/05/14 00:32:05;;;;;;;14.63;9.25;;;;;;;9.27;100.00;95802.44;1023058;28;20032;-72
2023/05/14 00:32:36;;;;;;;12.50;8.80;;;;;;;9.29;100.00;95814.25;1018376;28;20063;-71
2023/05/14 00:33:06;;;;;;;13.23;8.73;;;;;;;9.28;100.00;95806.63;1021915;28;20038;-73
2023/05/14 00:33:37;;;;;;;12.85;9.05;;;;;;;9.32;100.00;95810.31;1022259;29;20609;-72
2023/05/14 00:34:07;;;;;;;11.00;8.02;;;;;;;9.29;100.00;95808.22;1022300;28;20035;-71
2023/05/14 00:34:38;;;;;;;14.70;9.80;;;;;;;9.32;100.00;95805.09;1021856;28;20039;-71
2023/05/14 00:35:08;;;;;;;12.27;8.70;;;;;;;9.30;100.00;95809.81;1026131;28;20043;-71
2023/05/14 00:35:39;;;;;;;12.02;8.20;;;;;;;9.30;100.00;95810.59;1021922;28;20566;-72
2023/05/14 00:36:09;;;;;;;13.38;8.88;;;;;;;9.27;100.00;95815.53;1022020;28;20473;-72
2023/05/14 00:36:40;;;;;;;15.68;8.90;;;;;;;9.20;100.00;95798.22;1022786;28;20086;-72
2023/05/14 00:37:10;;;;;;;10.35;7.88;;;;;;;9.26;100.00;95813.97;1018971;29;20027;-72
2023/05/14 00:37:41;;;;;;;12.73;9.05;;;;;;;9.22;100.00;95808.44;1015104;29;20032;-72
2023/05/14 00:38:15;;;;;;;12.57;8.50;;;;;;;9.21;100.00;95804.22;1018869;29;20497;-72
2023/05/14 00:38:46;;;;;;;13.93;9.10;;;;;;;9.21;100.00;95802.41;1018028;28;20446;-71
2023/05/14 00:39:16;;;;;;;12.90;8.57;;;;;;;9.20;100.00;95811.31;1026579;28;20281;-71
2023/05/14 00:39:47;;;;;;;11.75;8.52;;;;;;;9.20;100.00;95805.28;1023863;28;20031;-73
2023/05/14 00:40:17;;;;;;;14.65;9.63;;;;;;;9.16;100.00;95798.97;1026562;28;20022;-72
2023/05/14 00:40:50;;;;;;;14.73;9.27;;;;;;;9.18;100.00;95807.34;1019014;29;20115;-71
2023/05/14 00:41:21;;;;;;;12.70;8.63;;;;;;;9.17;100.00;95808.41;1022890;29;20348;-71
2023/05/14 00:41:52;;;;;;;12.88;9.10;;;;;;;9.12;100.00;95797.88;1022822;29;20365;-72
2023/05/14 00:42:22;;;;;;;13.27;9.10;;;;;;;9.18;100.00;95802.13;1023110;28;20267;-71
2023/05/14 00:42:53;;;;;;;18.80;9.13;;;;;;;9.17;100.00;95806.56;1026818;28;20967;-71
2023/05/14 00:43:24;;;;;;;12.93;8.63;;;;;;;9.20;100.00;95807.91;1022930;28;20015;-70
2023/05/14 00:43:55;;;;;;;13.82;9.25;;;;;;;9.17;100.00;95803.94;1023105;28;20150;-71
2023/05/14 00:44:25;;;;;;;15.23;9.30;;;;;;;9.20;100.00;95806.06;1022653;29;20297;-72
2023/05/14 00:44:56;;;;;;;14.90;8.85;;;;;;;9.21;100.00;95807.63;1023299;28;20031;-70
2023/05/14 00:45:26;;;;;;;12.65;8.80;;;;;;;9.19;100.00;95801.09;1025992;28;20023;-72
2023/05/14 00:45:57;;;;;;;12.02;8.63;;;;;;;9.23;100.00;95810.03;1026906;28;20043;-72
2023/05/14 00:46:27;;;;;;;13.10;9.38;;;;;;;9.25;100.00;95809.75;1030734;28;20031;-72
2023/05/14 00:46:58;;;;;;;14.00;9.45;;;;;;;9.24;100.00;95805.56;1026818;28;20034;-72
2023/05/14 00:47:28;;;;;;;12.30;8.40;;;;;;;9.29;100.00;95810.81;1024622;28;20027;-72
2023/05/14 00:47:59;;;;;;;13.00;8.55;;;;;;;9.25;100.00;95801.91;1018912;28;20031;-71
2023/05/14 00:48:29;;;;;;;14.02;9.35;;;;;;;9.23;100.00;95806.63;1022899;28;20481;-72
2023/05/14 00:49:00;;;;;;;12.52;9.23;;;;;;;9.25;100.00;95802.69;1018110;29;20538;-70
2023/05/14 00:49:30;;;;;;;12.43;8.75;;;;;;;9.28;100.00;95804.81;1014769;29;20100;-72
2023/05/14 00:50:02;;;;;;;16.10;9.23;;;;;;;9.28;100.00;95806.63;1019087;29;20032;-72
2023/05/14 00:50:33;;;;;;;11.25;8.13;;;;;;;9.30;100.00;95807.19;1022653;29;20097;-71
2023/05/14 00:51:03;;;;;;;12.38;8.88;;;;;;;9.31;100.00;95808.75;1019100;29;20328;-71
2023/05/14 00:51:34;;;;;;;14.50;9.27;;;;;;;9.32;100.00;95807.69;1019404;29;20414;-71
2023/05/14 00:52:04;;;;;;;13.38;9.40;;;;;;;9.33;100.00;95802.22;1019104;28;20608;-71
2023/05/14 00:52:36;;;;;;;12.30;8.95;;;;;;;9.37;100.00;95805.13;1022657;28;20483;-71
2023/05/14 00:53:09;;;;;;;12.32;8.07;;;;;;;9.36;100.00;95806.97;1027236;28;20540;-71
2023/05/14 00:53:39;;;;;;;12.93;9.02;;;;;;;9.33;100.00;95798.81;1033416;28;20277;-72
2023/05/14 00:54:10;;;;;;;13.75;9.25;;;;;;;9.40;100.00;95800.19;1032734;28;20269;-72
2023/05/14 00:54:40;;;;;;;11.07;8.32;;;;;;;9.44;100.00;95811.72;1027541;28;20023;-71
2023/05/14 00:55:12;;;;;;;12.40;8.90;;;;;;;9.42;100.00;95805.97;1030804;28;20037;-72
2023/05/14 00:55:42;;;;;;;14.20;8.57;;;;;;;9.39;100.00;95790.75;1020016;29;20027;-71
2023/05/14 00:56:13;;;;;;;14.68;8.63;;;;;;;9.37;100.00;95794.66;1026676;28;20255;-72
2023/05/14 00:56:44;;;;;;;13.98;9.32;;;;;;;9.42;100.00;95805.16;1022544;29;20054;-72
2023/05/14 00:57:14;;;;;;;11.55;7.82;;;;;;;9.40;100.00;95804.63;1022879;29;20687;-72
2023/05/14 00:57:45;;;;;;;12.30;8.10;;;;;;;9.37;100.00;95797.28;1019662;29;20263;-72
2023/05/14 00:58:15;;;;;;;12.90;8.35;;;;;;;9.32;100.00;95792.00;1019450;28;20027;-72
2023/05/14 00:58:46;;;;;;;12.80;8.38;;;;;;;9.34;100.00;95795.94;1026082;28;20038;-71
2023/05/14 00:59:16;;;;;;;10.93;8.38;;;;;;;9.34;100.00;95795.16;1026517;28;20031;-71
2023/05/14 00:59:47;;;;;;;13.65;8.10;;;;;;;9.34;100.00;95800.41;1026931;28;20030;-72
2023/05/14 01:00:17;;;;;;;13.73;8.23;;;;;;;9.36;100.00;95790.47;1026696;28;20051;-72
2023/05/14 01:00:48;;;;;;;13.20;8.80;;;;;;;9.37;100.00;95797.28;1026661;28;20030;-73
2023/05/14 01:01:18;;;;;;;13.27;8.88;;;;;;;9.32;100.00;95792.00;1022846;28;20027;-71
2023/05/14 01:01:48;;;;;;;10.93;8.32;;;;;;;9.37;100.00;95794.66;1022742;29;20022;-71
2023/05/14 01:02:19;;;;;;;11.30;8.23;;;;;;;9.37;100.00;95789.41;1023093;28;20481;-72
2023/05/14 01:02:49;;;;;;;15.15;8.80;;;;;;;9.36;100.00;95798.31;1028985;28;20053;-70
2023/05/14 01:03:20;;;;;;;11.13;7.03;;;;;;;9.38;100.00;95801.47;1026720;28;20027;-72
2023/05/14 01:03:52;;;;;;;12.85;8.40;;;;;;;9.36;100.00;95793.88;1031001;28;20027;-72
2023/05/14 01:04:23;;;;;;;14.00;9.00;;;;;;;9.38;100.00;95802.25;1022870;28;20050;-70
2023/05/14 01:04:53;;;;;;;14.20;8.95;;;;;;;9.39;100.00;95797.81;1018891;29;20807;-72
2023/05/14 01:05:24;;;;;;;11.77;7.65;;;;;;;9.34;100.00;95797.78;1018724;29;20027;-72
2023/05/14 01:06:15;;;;;;;13.18;8.48;;;;;;;9.36;100.00;95798.31;1022677;29;20035;-72
2023/05/14 01:06:54;;;;;;;12.20;7.47;;;;;;;9.37;100.00;95800.69;1025559;28;20019;-72
2023/05/14 01:07:54;;;;;;;12.13;7.53;;;;;;;9.34;100.00;95790.72;1034770;28;20249;-71
2023/05/14 01:08:39;;;;;;;13.77;7.72;;;;;;;9.32;100.00;95798.03;1030656;28;20853;-72
2023/05/14 01:09:31;;;;;;;12.23;6.57;;;;;;;9.32;100.00;95792.00;1022518;29;20949;-72
2023/05/14 01:10:04;;;;;;;11.55;7.47;;;;;;;9.32;100.00;95799.84;1020162;28;20291;-72
2023/05/14 01:10:41;;;;;;;13.05;7.55;;;;;;;9.32;100.00;95797.22;1027499;28;20301;-72
2023/05/14 01:11:46;;;;;;;10.95;7.32;;;;;;;9.34;100.00;95795.16;1026554;28;20373;-71
2023/05/14 01:12:22;;;;;;;9.90;6.97;;;;;;;9.36;100.00;95795.72;1026929;28;20284;-72
2023/05/14 01:13:12;;;;;;;9.77;7.30;;;;;;;9.33;100.00;95793.59;1031754;28;20283;-71
2023/05/14 01:14:03;;;;;;;9.13;6.75;;;;;;;9.28;100.00;95801.41;1030789;28;20333;-72
2023/05/14 01:14:42;;;;;;;11.45;7.40;;;;;;;9.24;100.00;95779.38;1024139;28;20032;-71
2023/05/14 01:15:17;;;;;;;12.07;8.13;;;;;;;9.25;100.00;95788.81;1026501;28;20266;-73
2023/05/14 01:15:47;;;;;;;10.55;7.25;;;;;;;9.27;100.00;95784.91;1026527;28;20266;-72
2023/05/14 01:16:18;;;;;;;13.63;7.38;;;;;;;9.28;100.00;95790.94;1030837;28;20265;-72
2023/05/14 01:16:51;;;;;;;10.70;7.72;;;;;;;9.31;100.00;95790.44;1026692;28;20093;-72
2023/05/14 01:17:22;;;;;;;11.23;7.68;;;;;;;9.31;100.00;95787.81;1023073;28;20341;-72
2023/05/14 01:18:08;;;;;;;11.18;7.97;;;;;;;9.33;100.00;95793.59;1018961;29;20350;-72
2023/05/14 01:18:39;;;;;;;10.40;7.72;;;;;;;9.26;100.00;95787.78;1022364;29;20038;-72
2023/05/14 01:19:28;;;;;;;10.70;7.47;;;;;;;9.28;100.00;95783.06;1022423;29;20286;-73
2023/05/14 01:19:59;;;;;;;12.65;8.43;;;;;;;9.28;100.00;95789.09;1022616;29;20340;-72
2023/05/14 01:20:29;;;;;;;12.55;7.20;;;;;;;9.33;100.00;95797.00;1022607;29;20395;-71
2023/05/14 01:21:00;;;;;;;14.65;7.15;;;;;;;9.31;100.00;95795.66;1018725;29;20031;-71
2023/05/14 01:21:37;;;;;;;13.38;7.93;;;;;;;9.32;100.00;95795.44;1020968;29;20457;-71
2023/05/14 01:22:08;;;;;;;11.85;7.40;;;;;;;9.28;100.00;95790.94;1020653;28;20020;-72
2023/05/14 01:22:38;;;;;;;10.27;7.25;;;;;;;9.29;100.00;95792.50;1023493;28;20353;-72
2023/05/14 01:23:09;;;;;;;16.05;7.88;;;;;;;9.30;100.00;95794.09;1026788;28;20042;-71
2023/05/14 01:23:39;;;;;;;11.95;7.93;;;;;;;9.24;100.00;95787.25;1026476;28;20094;-72
2023/05/14 01:24:09;;;;;;;10.88;8.02;;;;;;;9.21;100.00;95789.31;1031093;28;20069;-72
2023/05/14 01:24:40;;;;;;;12.30;7.95;;;;;;;9.28;100.00;95802.19;1030322;28;20538;-72
2023/05/14 01:25:10;;;;;;;12.18;8.07;;;;;;;9.27;100.00;95792.75;1034631;28;20022;-71
2023/05/14 01:25:41;;;;;;;13.65;7.35;;;;;;;9.23;100.00;95789.06;1030727;28;20022;-72
2023/05/14 01:26:11;;;;;;;10.20;7.65;;;;;;;9.26;100.00;95795.66;1022630;28;20023;-72
2023/05/14 01:26:42;;;;;;;11.70;7.80;;;;;;;9.24;100.00;95792.47;1022430;29;20553;-72
2023/05/14 01:27:36;;;;;;;9.95;7.63;;;;;;;9.25;100.00;95800.06;1022854;29;20042;-72
2023/05/14 01:28:19;;;;;;;8.40;6.65;;;;;;;9.24;100.00;95795.88;1018324;29;20032;-72
2023/05/14 01:28:50;;;;;;;10.73;7.10;;;;;;;9.22;100.00;95792.72;1022857;28;20277;-72
2023/05/14 01:29:21;;;;;;;13.82;8.07;;;;;;;9.21;100.00;95793.75;1026590;28;20276;-71
2023/05/14 01:30:08;;;;;;;13.50;8.15;;;;;;;9.19;100.00;95788.78;1026414;28;20366;-71
2023/05/14 01:31:01;;;;;;;11.48;6.60;;;;;;;9.26;100.00;95793.03;1018450;29;20704;-71
2023/05/14 01:31:31;;;;;;;12.35;7.07;;;;;;;9.24;100.00;95785.41;1023623;28;20800;-71
2023/05/14 01:32:02;;;;;;;9.80;6.88;;;;;;;9.26;100.00;95796.44;1016840;29;20263;-71
2023/05/14 01:32:32;;;;;;;12.02;7.93;;;;;;;9.23;100.00;95789.06;1014756;29;20035;-72
2023/05/14 01:33:08;;;;;;;11.15;7.50;;;;;;;9.21;100.00;95783.28;1014812;29;20127;-72
2023/05/14 01:33:38;;;;;;;8.95;6.95;;;;;;;9.28;100.00;95789.09;1022586;29;20054;-72
2023/05/14 01:34:08;;;;;;;10.13;7.70;;;;;;;9.26;100.00;95787.78;1022545;29;20266;-73
2023/05/14 01:34:39;;;;;;;11.90;7.80;;;;;;;9.26;100.00;95793.81;1022466;29;20031;-71
2023/05/14 01:35:10;;;;;;;10.30;7.32;;;;;;;9.08;100.00;95765.41;1022875;29;20054;-71
2023/05/14 01:35:40;;;;;;;12.43;7.63;;;;;;;9.27;100.00;95792.75;1014763;29;20028;-72
2023/05/14 01:36:11;;;;;;;8.55;7.32;;;;;;;9.30;100.00;95794.88;1014688;29;20505;-71
2023/05/14 01:36:41;;;;;;;11.27;7.80;;;;;;;9.29;100.00;95785.47;1026573;28;20039;-72
2023/05/14 01:37:12;;;;;;;9.95;6.85;;;;;;;9.31;100.00;95787.81;1022740;29;20019;-71
2023/05/14 01:37:42;;;;;;;12.55;8.30;;;;;;;9.32;100.00;95787.56;1014872;29;20040;-72
2023/05/14 01:38:15;;;;;;;10.50;7.30;;;;;;;9.34;100.00;95787.31;1018691;29;20027;-70
2023/05/14 01:38:46;;;;;;;11.25;7.78;;;;;;;9.34;100.00;95789.91;1022122;29;20066;-72
2023/05/14 01:39:16;;;;;;;12.13;8.02;;;;;;;9.33;100.00;95793.59;1018509;29;20271;-71
2023/05/14 01:39:47;;;;;;;9.82;7.45;;;;;;;9.29;100.00;95788.06;1018435;29;20028;-71
2023/05/14 01:40:17;;;;;;;9.68;7.30;;;;;;;9.28;100.00;95788.31;1018632;29;20039;-71
2023/05/14 01:40:48;;;;;;;11.32;7.47;;;;;;;9.26;100.00;95778.09;1018872;29;20028;-71
2023/05/14 01:41:18;;;;;;;9.07;6.82;;;;;;;9.24;100.00;95782.00;1026597;28;20386;-72
2023/05/14 01:41:49;;;;;;;11.25;7.63;;;;;;;9.31;100.00;95787.81;1022500;29;20031;-72
2023/05/14 01:42:19;;;;;;;11.57;8.13;;;;;;;9.28;100.00;95788.31;1030578;28;20047;-73
2023/05/14 01:42:50;;;;;;;19.45;7.43;;;;;;;9.23;100.00;95783.84;1022632;29;20038;-71
2023/05/14 01:43:21;;;;;;;11.18;8.32;;;;;;;9.28;100.00;95785.69;1018494;29;20410;-70
2023/05/14 01:43:51;;;;;;;11.57;8.35;;;;;;;9.24;100.00;95785.41;1018629;29;20267;-71
2023/05/14 01:44:22;;;;;;;11.75;8.05;;;;;;;9.29;100.00;95788.06;1018612;29;20035;-72
2023/05/14 01:44:52;;;;;;;9.73;7.13;;;;;;;9.31;100.00;95790.44;1022989;28;20102;-72
2023/05/14 01:45:23;;;;;;;10.65;7.00;;;;;;;9.27;100.00;95784.13;1025533;28;20031;-72
2023/05/14 01:45:54;;;;;;;11.10;7.60;;;;;;;9.26;100.00;95788.56;1022423;29;20046;-71
2023/05/14 01:46:24;;;;;;;9.75;6.95;;;;;;;9.31;100.00;95787.81;1022966;28;20050;-71
2023/05/14 01:46:55;;;;;;;11.02;7.35;;;;;;;9.23;100.00;95778.59;1030841;28;20265;-72
2023/05/14 01:47:25;;;;;;;9.02;7.28;;;;;;;9.27;100.00;95790.16;1030425;28;20056;-71
2023/05/14 01:47:56;;;;;;;10.82;8.18;;;;;;;9.27;100.00;95784.13;1030533;28;20030;-72
2023/05/14 01:48:28;;;;;;;10.85;7.57;;;;;;;9.13;100.00;95763.63;1030465;28;20030;-73
2023/05/14 01:48:59;;;;;;;10.68;7.40;;;;;;;9.27;100.00;95784.13;1029610;28;20041;-71
2023/05/14 01:49:29;;;;;;;9.80;7.47;;;;;;;9.28;100.00;95785.69;1030642;28;20718;-71
2023/05/14 01:50:00;;;;;;;11.75;7.85;;;;;;;9.21;100.00;95771.00;1030783;28;20082;-72
2023/05/14 01:50:30;;;;;;;10.52;7.25;;;;;;;9.25;100.00;95780.97;1026843;28;20390;-71
2023/05/14 01:51:01;;;;;;;10.95;8.20;;;;;;;9.22;100.00;95771.78;1022433;29;20019;-72
2023/05/14 01:51:31;;;;;;;10.35;7.18;;;;;;;9.27;100.00;95778.88;1014824;29;20039;-70
2023/05/14 01:52:02;;;;;;;9.23;7.20;;;;;;;9.24;100.00;95776.78;1014973;29;20066;-71
2023/05/14 01:52:32;;;;;;;12.98;7.32;;;;;;;9.29;100.00;95782.03;1018493;29;20043;-72
2023/05/14 01:53:03;;;;;;;10.85;7.55;;;;;;;9.28;100.00;95777.84;1022899;28;20035;-73
2023/05/14 01:53:33;;;;;;;10.57;7.72;;;;;;;9.29;100.00;95777.59;1022473;29;20031;-72
2023/05/14 01:54:04;;;;;;;10.00;7.30;;;;;;;9.30;100.00;95778.38;1018897;28;20039;-72
2023/05/14 01:54:34;;;;;;;13.02;7.32;;;;;;;9.26;100.00;95777.31;1022465;29;20416;-72
2023/05/14 01:55:05;;;;;;;10.20;7.78;;;;;;;9.10;100.00;95756.25;1018579;29;20028;-72
2023/05/14 01:55:36;;;;;;;11.07;8.02;;;;;;;9.20;100.00;95763.41;1022591;29;20160;-72
2023/05/14 01:56:06;;;;;;;11.40;8.23;;;;;;;9.25;100.00;95771.28;1026270;28;20297;-71
2023/05/14 01:56:37;;;;;;;11.00;8.00;;;;;;;9.27;100.00;95781.50;1026284;28;20043;-73
2023/05/14 01:57:07;;;;;;;11.38;7.57;;;;;;;9.26;100.00;95761.59;1026247;28;20027;-72
2023/05/14 01:57:37;;;;;;;12.82;7.82;;;;;;;9.29;100.00;95776.78;1026343;28;20038;-72
2023/05/14 01:58:08;;;;;;;11.00;8.20;;;;;;;9.30;100.00;95775.75;1022613;28;20027;-72
2023/05/14 01:58:38;;;;;;;12.38;8.00;;;;;;;9.27;100.00;95771.03;1026131;28;20479;-71
2023/05/14 01:59:09;;;;;;;9.52;6.97;;;;;;;9.28;100.00;95772.59;1025893;28;20039;-72
2023/05/14 01:59:39;;;;;;;14.65;7.78;;;;;;;9.26;100.00;95769.47;1022632;28;20031;-72
2023/05/14 02:00:10;;;;;;;12.60;7.78;;;;;;;9.29;100.00;95777.59;1022448;29;20038;-72
2023/05/14 02:00:41;;;;;;;10.02;7.20;;;;;;;9.29;100.00;95771.53;1018451;29;20034;-72
2023/05/14 02:01:11;;;;;;;10.45;7.80;;;;;;;9.28;100.00;95769.97;1020555;29;20544;-72
2023/05/14 02:01:41;;;;;;;11.13;7.45;;;;;;;9.28;100.00;95769.97;1018806;28;20046;-72
2023/05/14 02:02:12;;;;;;;12.50;8.07;;;;;;;9.28;100.00;95769.97;1026632;28;20066;-71
2023/05/14 02:02:42;;;;;;;12.65;8.07;;;;;;;9.29;100.00;95769.75;1026352;28;20030;-72
2023/05/14 02:03:13;;;;;;;10.82;7.40;;;;;;;9.31;100.00;95770.25;1026464;28;20078;-72
2023/05/14 02:03:43;;;;;;;13.05;7.65;;;;;;;9.30;100.00;95767.91;1026726;28;20512;-72
2023/05/14 02:04:14;;;;;;;11.20;8.07;;;;;;;9.28;100.00;95769.97;1026389;28;20748;-72
2023/05/14 02:04:44;;;;;;;9.55;7.00;;;;;;;9.29;100.00;95766.31;1030431;28;20054;-72
2023/05/14 02:05:15;;;;;;;10.27;8.20;;;;;;;9.31;100.00;95766.84;1030635;28;20043;-72
2023/05/14 02:05:45;;;;;;;10.15;7.22;;;;;;;9.30;100.00;95768.69;1030415;28;20030;-71
2023/05/14 02:06:16;;;;;;;13.40;8.40;;;;;;;9.31;100.00;95766.84;1030415;28;20022;-71
2023/05/14 02:06:46;;;;;;;13.38;8.07;;;;;;;9.32;100.00;95765.81;1030663;28;20028;-71
2023/05/14 02:07:17;;;;;;;11.55;8.05;;;;;;;9.34;100.00;95766.34;1030509;28;20888;-72
2023/05/14 02:07:47;;;;;;;11.10;7.70;;;;;;;9.30;100.00;95763.47;1030727;28;20041;-73
2023/05/14 02:08:17;;;;;;;11.10;8.10;;;;;;;9.27;100.00;95763.19;1026531;28;20031;-72
2023/05/14 02:08:48;;;;;;;10.57;7.38;;;;;;;9.31;100.00;95769.47;1029927;28;20030;-72
2023/05/14 02:09:18;;;;;;;11.98;8.80;;;;;;;9.19;100.00;95751.34;1030291;28;20085;-72
2023/05/14 02:09:49;;;;;;;12.75;7.82;;;;;;;9.25;100.00;95765.25;1026608;28;20046;-72
2023/05/14 02:10:19;;;;;;;12.13;7.82;;;;;;;9.26;100.00;95762.38;1034612;28;20056;-73
2023/05/14 02:10:50;;;;;;;10.30;7.57;;;;;;;9.27;100.00;95761.34;1034628;28;20029;-71
2023/05/14 02:11:20;;;;;;;12.05;7.70;;;;;;;9.27;100.00;95763.97;1030305;28;20034;-73
2023/05/14 02:11:51;;;;;;;11.73;8.50;;;;;;;9.30;100.00;95762.66;1034711;28;20077;-73
2023/05/14 02:12:21;;;;;;;10.52;7.68;;;;;;;9.30;100.00;95762.66;1030365;28;20041;-72
2023/05/14 02:12:52;;;;;;;11.07;8.13;;;;;;;9.30;100.00;95767.91;1026300;28;20038;-71
2023/05/14 02:13:23;;;;;;;12.20;7.78;;;;;;;9.31;100.00;95759.00;1026618;28;20042;-71
2023/05/14 02:13:54;;;;;;;11.80;7.75;;;;;;;9.32;100.00;95755.34;1022875;28;20027;-71
2023/05/14 02:14:24;;;;;;;13.57;7.82;;;;;;;9.30;100.00;95757.44;1022141;29;20279;-72
2023/05/14 02:14:55;;;;;;;11.25;7.55;;;;;;;9.27;100.00;95756.09;1018380;29;20732;-71
2023/05/14 02:15:25;;;;;;;11.07;8.07;;;;;;;9.27;100.00;95758.72;1014382;29;20450;-72
2023/05/14 02:15:56;;;;;;;14.68;9.82;;;;;;;9.30;100.00;95757.44;1018474;29;20035;-73
2023/05/14 02:16:26;;;;;;;13.13;8.70;;;;;;;9.28;100.00;95757.69;1022599;28;20036;-72
2023/05/14 02:16:57;;;;;;;11.63;7.72;;;;;;;9.23;100.00;95743.78;1030544;28;20038;-72
2023/05/14 02:17:27;;;;;;;11.52;7.57;;;;;;;9.27;100.00;95760.56;1034546;28;20034;-72
2023/05/14 02:17:57;;;;;;;11.68;7.72;;;;;;;9.25;100.00;95750.31;1034083;28;20089;-72
2023/05/14 02:18:28;;;;;;;15.32;8.77;;;;;;;9.25;100.00;95749.53;1034428;28;20487;-72
2023/05/14 02:18:58;;;;;;;11.02;7.80;;;;;;;9.26;100.00;95751.13;1025965;28;20026;-72
2023/05/14 02:19:29;;;;;;;12.27;7.90;;;;;;;9.27;100.00;95753.50;1022417;29;20031;-72
2023/05/14 02:19:59;;;;;;;11.65;7.93;;;;;;;9.28;100.00;95754.28;1018238;29;20031;-72
2023/05/14 02:20:30;;;;;;;12.90;8.40;;;;;;;9.31;100.00;95751.94;1014954;29;20115;-72
2023/05/14 02:21:00;;;;;;;11.10;7.88;;;;;;;9.31;100.00;95748.53;1022608;28;20563;-72
2023/05/14 02:21:31;;;;;;;12.68;7.82;;;;;;;9.27;100.00;95737.00;1018544;29;20044;-72
2023/05/14 02:22:02;;;;;;;13.35;8.43;;;;;;;9.27;100.00;95744.84;1019506;29;20096;-72
2023/05/14 02:22:32;;;;;;;13.63;8.15;;;;;;;9.34;100.00;95753.25;1023225;28;20086;-72
2023/05/14 02:23:02;;;;;;;15.38;8.80;;;;;;;9.31;100.00;95753.75;1020860;29;20425;-73
2023/05/14 02:23:33;;;;;;;13.48;8.30;;;;;;;9.31;100.00;95754.56;1019300;29;20458;-71
2023/05/14 02:24:03;;;;;;;12.88;8.50;;;;;;;9.25;100.00;95744.31;1019494;29;20127;-72
2023/05/14 02:24:34;;;;;;;13.20;8.80;;;;;;;9.31;100.00;95754.56;1019544;29;20050;-72
2023/05/14 02:25:05;;;;;;;13.68;8.90;;;;;;;9.25;100.00;95744.31;1022468;28;20134;-72
2023/05/14 02:25:36;;;;;;;12.88;8.23;;;;;;;9.31;100.00;95754.56;1026939;28;20034;-72
2023/05/14 02:26:08;;;;;;;14.23;8.70;;;;;;;9.25;100.00;95745.09;1026613;28;20039;-72
2023/05/14 02:26:38;;;;;;;12.90;9.02;;;;;;;9.31;100.00;95748.53;1023454;28;20692;-71
2023/05/14 02:27:11;;;;;;;17.48;8.45;;;;;;;9.24;100.00;95738.28;1031526;28;20265;-69
2023/05/14 02:27:42;;;;;;;14.07;8.90;;;;;;;9.31;100.00;95751.16;1026889;28;20097;-72
2023/05/14 02:28:12;;;;;;;13.18;8.63;;;;;;;9.32;100.00;95752.72;1019410;29;20299;-72